createdAt,value
2022-12-16T00:01:40.705Z,59.00
2022-12-16T00:04:10.952Z,58.30
2022-12-16T00:06:41.259Z,58.60
2022-12-16T00:09:11.816Z,58.20
2022-12-16T00:11:42.097Z,58.80
2022-12-16T00:14:12.399Z,58.10
2022-12-16T00:16:43.282Z,57.60
2022-12-16T00:19:13.556Z,56.60
2022-12-16T00:21:44.130Z,57.30
2022-12-16T00:24:14.715Z,56.90
2022-12-16T00:26:44.941Z,58.00
2022-12-16T00:29:15.244Z,55.40
2022-12-16T00:31:52.283Z,53.10
2022-12-16T00:34:24.661Z,57.50
2022-12-16T00:36:55.404Z,56.80
2022-12-16T00:39:28.884Z,56.10
2022-12-16T00:41:59.912Z,55.00
2022-12-16T00:44:31.450Z,55.80
2022-12-16T00:47:02.102Z,56.80
2022-12-16T00:49:32.531Z,57.80
2022-12-16T00:52:03.433Z,57.80
2022-12-16T00:54:33.725Z,57.30
2022-12-16T00:57:04.281Z,58.50
2022-12-16T00:59:34.621Z,56.10
2022-12-16T01:02:05.663Z,56.90
2022-12-16T01:04:36.472Z,57.00
2022-12-16T01:07:07.000Z,56.30
2022-12-16T01:09:38.254Z,57.40
2022-12-16T01:12:09.613Z,55.50
2022-12-16T01:14:40.788Z,55.60
2022-12-16T01:17:11.542Z,55.70
2022-12-16T01:19:42.501Z,56.90
2022-12-16T01:22:14.462Z,56.70
2022-12-16T01:24:46.510Z,56.20
2022-12-16T01:27:19.206Z,56.60
2022-12-16T01:29:49.554Z,55.90
2022-12-16T01:32:21.026Z,55.60
2022-12-16T01:34:56.021Z,54.80
2022-12-16T01:37:27.330Z,55.70
2022-12-16T01:39:57.930Z,54.00
2022-12-16T01:42:34.429Z,55.60
2022-12-16T01:45:34.588Z,53.90
2022-12-16T01:48:29.843Z,55.30
2022-12-16T01:51:05.677Z,55.20
2022-12-16T01:56:25.110Z,55.10
2022-12-16T01:58:56.786Z,53.90
2022-12-16T02:01:27.264Z,54.40
2022-12-16T02:04:03.475Z,54.90
2022-12-16T02:06:35.930Z,53.30
2022-12-16T02:09:10.038Z,53.50
2022-12-16T02:15:41.010Z,54.20
2022-12-16T02:18:46.222Z,52.50
2022-12-16T02:21:23.102Z,54.80
2022-12-16T02:24:35.766Z,54.80
2022-12-16T02:30:08.690Z,52.70
2022-12-16T02:33:15.572Z,53.20
2022-12-16T02:36:16.796Z,53.70
2022-12-16T02:39:28.038Z,54.20
2022-12-16T02:42:19.129Z,54.50
2022-12-16T02:47:50.676Z,51.30
2022-12-16T02:50:42.755Z,51.90
2022-12-16T02:53:14.230Z,51.40
2022-12-16T02:56:21.162Z,53.30
2022-12-16T02:59:15.901Z,54.20
2022-12-16T03:05:21.220Z,54.40
2022-12-16T03:07:54.693Z,55.20
2022-12-16T03:10:29.694Z,55.60
2022-12-16T03:13:03.450Z,53.90
2022-12-16T03:15:37.706Z,54.80
2022-12-16T03:21:07.171Z,54.10
2022-12-16T03:23:50.214Z,54.40
2022-12-16T03:26:27.862Z,54.60
2022-12-16T03:29:07.351Z,54.80
2022-12-16T03:31:52.504Z,54.30
2022-12-16T03:37:26.241Z,53.90
2022-12-16T03:40:01.840Z,51.40
2022-12-16T03:42:32.538Z,51.40
2022-12-16T03:45:02.958Z,53.40
2022-12-16T03:47:33.353Z,53.20
2022-12-16T03:50:03.595Z,54.20
2022-12-16T03:52:52.729Z,54.20
2022-12-16T03:55:22.972Z,53.30
2022-12-16T03:57:53.362Z,54.90
2022-12-16T04:00:24.047Z,55.40
2022-12-16T04:02:56.444Z,55.50
2022-12-16T04:05:28.852Z,55.30
2022-12-16T04:11:04.642Z,53.50
2022-12-16T04:13:52.650Z,53.60
2022-12-16T04:16:41.160Z,54.90
2022-12-16T04:19:45.971Z,53.60
2022-12-16T04:22:57.201Z,55.30
2022-12-16T04:28:23.557Z,54.70
2022-12-16T04:30:54.092Z,55.60
2022-12-16T04:33:45.937Z,54.70
2022-12-16T04:36:35.468Z,54.70
2022-12-16T04:39:24.571Z,55.60
2022-12-16T04:45:21.465Z,55.40
2022-12-16T04:48:09.830Z,55.90
2022-12-16T04:50:59.701Z,54.80
2022-12-16T04:53:48.908Z,55.60
2022-12-16T04:56:37.867Z,55.90
2022-12-16T05:02:31.128Z,56.10
2022-12-16T05:05:19.295Z,56.10
2022-12-16T05:08:07.400Z,56.60
2022-12-16T05:10:56.188Z,55.40
2022-12-16T05:13:44.832Z,55.40
2022-12-16T05:16:33.577Z,56.60
2022-12-16T05:19:24.811Z,55.80
2022-12-16T05:22:16.942Z,56.20
2022-12-16T05:25:05.064Z,55.90
2022-12-16T05:27:53.620Z,57.20
2022-12-16T05:33:46.687Z,56.00
2022-12-16T05:36:35.764Z,56.10
2022-12-16T05:39:25.237Z,55.70
2022-12-16T05:42:14.775Z,54.60
2022-12-16T05:45:03.229Z,56.90
2022-12-16T05:47:53.813Z,55.00
2022-12-16T05:50:42.526Z,56.40
2022-12-16T05:53:32.816Z,56.10
2022-12-16T05:56:21.121Z,55.80
2022-12-16T05:59:09.408Z,55.60
2022-12-16T06:01:57.822Z,56.40
2022-12-16T06:04:45.976Z,55.80
2022-12-16T06:07:34.204Z,54.20
2022-12-16T06:10:23.284Z,55.50
2022-12-16T06:13:11.674Z,56.40
2022-12-16T06:16:03.700Z,55.50
2022-12-16T06:18:55.196Z,56.00
2022-12-16T06:21:43.772Z,55.00
2022-12-16T06:24:31.983Z,53.70
2022-12-16T06:27:20.004Z,55.80
2022-12-16T06:30:07.936Z,55.70
2022-12-16T06:32:56.910Z,55.90
2022-12-16T06:35:46.838Z,56.10
2022-12-16T06:38:35.624Z,57.00
2022-12-16T06:41:24.172Z,55.40
2022-12-16T06:44:13.733Z,57.80
2022-12-16T06:47:01.993Z,58.10
2022-12-16T06:49:50.727Z,56.80
2022-12-16T06:52:41.017Z,57.50
2022-12-16T06:55:29.674Z,56.00
2022-12-16T06:58:21.386Z,57.00
2022-12-16T07:01:10.092Z,56.30
2022-12-16T07:03:58.417Z,56.90
2022-12-16T07:06:46.548Z,56.90
2022-12-16T07:09:34.796Z,58.20
2022-12-16T07:12:22.898Z,57.60
2022-12-16T07:15:11.096Z,57.90
2022-12-16T07:18:01.073Z,58.50
2022-12-16T07:20:49.464Z,58.20
2022-12-16T07:23:37.950Z,58.90
2022-12-16T07:26:26.109Z,58.50
2022-12-16T07:29:14.548Z,56.70
2022-12-16T07:32:02.796Z,57.70
2022-12-16T07:34:51.025Z,58.60
2022-12-16T07:37:39.499Z,58.80
2022-12-16T07:40:28.110Z,58.90
2022-12-16T07:43:24.405Z,59.60
2022-12-16T07:46:12.437Z,59.70
2022-12-16T07:49:00.847Z,59.80
2022-12-16T07:51:48.908Z,61.20
2022-12-16T07:54:37.065Z,59.70
2022-12-16T07:57:25.752Z,59.70
2022-12-16T08:00:14.189Z,60.00
2022-12-16T08:03:03.248Z,61.00
2022-12-16T08:05:53.352Z,61.00
2022-12-16T08:08:44.330Z,62.30
2022-12-16T08:11:33.156Z,61.70
2022-12-16T08:14:23.864Z,62.20
2022-12-16T08:17:12.171Z,61.30
2022-12-16T08:20:00.290Z,61.00
2022-12-16T08:22:48.285Z,61.20
2022-12-16T08:25:36.822Z,61.70
2022-12-16T08:28:24.946Z,61.70
2022-12-16T08:31:13.363Z,61.20
2022-12-16T08:34:01.955Z,61.70
2022-12-16T08:36:50.023Z,61.10
2022-12-16T08:39:39.296Z,62.90
2022-12-16T08:42:27.439Z,63.20
2022-12-16T08:45:15.375Z,63.70
2022-12-16T08:48:03.902Z,62.80
2022-12-16T08:50:52.061Z,64.00
2022-12-16T08:53:40.160Z,63.90
2022-12-16T08:56:28.218Z,64.40
2022-12-16T08:59:17.165Z,62.80
2022-12-16T09:02:07.428Z,63.50
2022-12-16T09:04:58.749Z,62.90
2022-12-16T09:07:47.056Z,63.90
2022-12-16T09:10:39.801Z,64.10
2022-12-16T09:13:35.615Z,64.40
2022-12-16T09:16:25.327Z,64.50
2022-12-16T09:19:13.500Z,64.50
2022-12-16T09:22:01.991Z,63.50
2022-12-16T09:24:50.270Z,64.50
2022-12-16T09:27:38.905Z,64.40
2022-12-16T09:30:28.212Z,65.30
2022-12-16T09:33:17.706Z,64.20
2022-12-16T09:36:08.244Z,65.10
2022-12-16T09:38:57.979Z,63.90
2022-12-16T09:41:59.442Z,63.50
2022-12-16T09:45:22.747Z,65.20
2022-12-16T09:48:40.402Z,63.70
2022-12-16T09:51:31.411Z,63.30
2022-12-16T09:54:23.698Z,63.90
2022-12-16T09:57:12.692Z,64.10
2022-12-16T10:00:06.364Z,64.20
2022-12-16T10:02:55.059Z,64.00
2022-12-16T10:05:57.024Z,64.50
2022-12-16T10:09:14.307Z,64.30
2022-12-16T10:12:28.310Z,64.60
2022-12-16T10:15:42.107Z,65.60
2022-12-16T10:19:08.323Z,66.20
2022-12-16T10:22:06.413Z,66.40
2022-12-16T10:25:19.143Z,66.60
2022-12-16T10:28:10.798Z,67.10
2022-12-16T10:30:59.914Z,67.30
2022-12-16T10:33:49.928Z,67.30
2022-12-16T10:36:42.981Z,68.10
2022-12-16T10:39:51.649Z,68.20
2022-12-16T10:42:52.541Z,68.10
2022-12-16T10:46:10.307Z,68.40
2022-12-16T10:48:58.915Z,68.40
2022-12-16T10:51:50.639Z,68.90
2022-12-16T10:54:46.652Z,69.30
2022-12-16T10:57:53.091Z,69.30
2022-12-16T11:01:03.267Z,69.50
2022-12-16T11:03:58.304Z,69.90
2022-12-16T11:07:00.671Z,69.70
2022-12-16T11:09:59.169Z,70.10
2022-12-16T11:12:52.338Z,70.50
2022-12-16T11:15:49.939Z,70.80
2022-12-16T11:18:41.294Z,70.90
2022-12-16T11:21:39.915Z,70.80
2022-12-16T11:24:36.134Z,71.00
2022-12-16T11:27:33.506Z,71.50
2022-12-16T11:30:34.156Z,71.30
2022-12-16T11:33:41.395Z,71.20
2022-12-16T11:36:33.328Z,71.90
2022-12-16T11:39:22.989Z,72.00
2022-12-16T11:42:14.780Z,72.00
2022-12-16T11:45:17.173Z,71.20
2022-12-16T11:48:07.699Z,71.60
2022-12-16T11:51:18.088Z,72.10
2022-12-16T11:54:09.722Z,72.80
2022-12-16T11:57:04.101Z,71.60
2022-12-16T12:00:05.744Z,72.20
2022-12-16T12:03:11.722Z,71.90
2022-12-16T12:06:19.579Z,72.10
2022-12-16T12:09:36.853Z,72.50
2022-12-16T12:12:46.620Z,72.70
2022-12-16T12:16:04.778Z,72.90
2022-12-16T12:19:10.655Z,73.60
2022-12-16T12:22:12.826Z,74.20
2022-12-16T12:25:07.120Z,73.90
2022-12-16T12:28:09.470Z,74.10
2022-12-16T12:31:20.029Z,74.60
2022-12-16T12:34:31.072Z,74.40
2022-12-16T12:37:31.087Z,74.20
2022-12-16T12:40:59.710Z,75.50
2022-12-16T12:44:12.797Z,74.40
2022-12-16T12:47:17.310Z,75.40
2022-12-16T12:50:18.735Z,74.90
2022-12-16T12:53:43.125Z,75.20
2022-12-16T12:56:45.446Z,74.40
2022-12-16T12:59:54.901Z,73.90
2022-12-16T13:02:50.015Z,74.10
2022-12-16T13:05:38.741Z,74.00
2022-12-16T13:08:52.643Z,73.90
2022-12-16T13:12:19.977Z,73.70
2022-12-16T13:15:29.084Z,73.90
2022-12-16T13:18:24.142Z,74.50
2022-12-16T13:21:19.488Z,75.10
2022-12-16T13:24:08.330Z,75.50
2022-12-16T13:26:57.260Z,74.80
2022-12-16T13:29:47.743Z,73.80
2022-12-16T13:32:42.236Z,75.30
2022-12-16T13:35:32.612Z,75.50
2022-12-16T13:38:40.574Z,75.50
2022-12-16T13:41:48.652Z,76.60
2022-12-16T13:45:06.231Z,77.40
2022-12-16T13:48:15.075Z,76.90
2022-12-16T13:51:18.453Z,77.20
2022-12-16T13:54:14.503Z,77.20
2022-12-16T13:57:09.578Z,77.50
2022-12-16T14:00:22.580Z,78.60
2022-12-16T14:03:13.941Z,78.00
2022-12-16T14:06:05.221Z,79.00
2022-12-16T14:08:58.512Z,78.90
2022-12-16T14:12:08.294Z,79.10
2022-12-16T14:15:15.462Z,78.80
2022-12-16T14:18:18.473Z,79.60
2022-12-16T14:21:19.107Z,79.20
2022-12-16T14:24:24.909Z,79.20
2022-12-16T14:27:14.005Z,79.10
2022-12-16T14:30:04.196Z,79.30
2022-12-16T14:32:55.828Z,79.70
2022-12-16T14:35:47.584Z,79.30
2022-12-16T14:38:51.566Z,79.60
2022-12-16T14:41:45.304Z,79.40
2022-12-16T14:44:44.275Z,79.20
2022-12-16T14:47:42.427Z,79.10
2022-12-16T14:50:49.687Z,78.70
2022-12-16T14:53:44.450Z,78.40
2022-12-16T14:56:41.834Z,78.40
2022-12-16T14:59:58.620Z,78.20
2022-12-16T15:03:01.660Z,78.50
2022-12-16T15:05:56.332Z,78.60
2022-12-16T15:08:47.195Z,78.60
2022-12-16T15:11:41.241Z,79.20
2022-12-16T15:14:33.837Z,78.10
2022-12-16T15:17:23.191Z,77.80
2022-12-16T15:20:13.719Z,77.90
2022-12-16T15:23:10.776Z,77.40
2022-12-16T15:26:04.022Z,77.60
2022-12-16T15:29:00.723Z,78.10
2022-12-16T15:31:57.788Z,78.20
2022-12-16T15:35:15.336Z,78.50
2022-12-16T15:38:04.824Z,78.30
2022-12-16T15:40:56.803Z,78.40
2022-12-16T15:43:45.447Z,80.10
2022-12-16T15:46:51.169Z,79.30
2022-12-16T15:50:04.149Z,78.90
2022-12-16T15:53:02.658Z,78.60
2022-12-16T15:56:04.493Z,78.30
2022-12-16T15:58:57.020Z,78.50
2022-12-16T16:01:48.411Z,79.00
2022-12-16T16:04:42.342Z,79.30
2022-12-16T16:07:42.907Z,78.90
2022-12-16T16:10:43.485Z,78.70
2022-12-16T16:13:32.991Z,78.60
2022-12-16T16:16:24.852Z,78.50
2022-12-16T16:19:13.067Z,78.20
2022-12-16T16:22:01.592Z,77.30
2022-12-16T16:24:50.518Z,77.90
2022-12-16T16:27:40.800Z,78.30
2022-12-16T16:30:50.309Z,78.20
2022-12-16T16:33:40.294Z,78.20
2022-12-16T16:36:47.395Z,78.40
2022-12-16T16:39:36.156Z,79.10
2022-12-16T16:42:24.795Z,79.30
2022-12-16T16:45:13.326Z,79.30
2022-12-16T16:48:01.325Z,79.90
2022-12-16T16:50:50.165Z,78.90
2022-12-16T16:53:39.685Z,79.40
2022-12-16T16:56:32.302Z,79.60
2022-12-16T16:59:21.025Z,79.30
2022-12-16T17:02:10.860Z,79.40
2022-12-16T17:04:59.500Z,79.40
2022-12-16T17:07:52.256Z,79.30
2022-12-16T17:10:42.239Z,80.60
2022-12-16T17:13:31.356Z,79.80
2022-12-16T17:16:21.456Z,80.70
2022-12-16T17:19:10.619Z,80.50
2022-12-16T17:22:00.143Z,79.90
2022-12-16T17:24:52.709Z,80.60
2022-12-16T17:27:47.743Z,80.20
2022-12-16T17:30:47.456Z,80.80
2022-12-16T17:33:37.554Z,80.90
2022-12-16T17:36:31.608Z,81.60
2022-12-16T17:39:20.459Z,80.70
2022-12-16T17:42:09.920Z,81.70
2022-12-16T17:44:58.075Z,81.60
2022-12-16T17:47:46.251Z,82.20
2022-12-16T17:50:34.489Z,81.80
2022-12-16T17:53:22.719Z,82.00
2022-12-16T17:56:14.199Z,82.80
2022-12-16T17:59:04.507Z,82.70
2022-12-16T18:01:53.968Z,82.90
2022-12-16T18:04:45.161Z,82.70
2022-12-16T18:07:33.720Z,83.30
2022-12-16T18:10:22.420Z,83.50
2022-12-16T18:13:11.092Z,83.60
2022-12-16T18:15:59.877Z,83.80
2022-12-16T18:18:48.450Z,83.90
2022-12-16T18:21:37.160Z,84.20
2022-12-16T18:24:29.293Z,84.20
2022-12-16T18:27:17.864Z,84.10
2022-12-16T18:30:06.025Z,84.30
2022-12-16T18:32:54.033Z,84.10
2022-12-16T18:35:44.004Z,83.70
2022-12-16T18:38:35.143Z,84.10
2022-12-16T18:41:26.328Z,83.80
2022-12-16T18:44:14.735Z,84.00
2022-12-16T18:47:03.697Z,83.80
2022-12-16T18:49:54.684Z,83.70
2022-12-16T18:52:54.475Z,83.70
2022-12-16T18:55:43.502Z,83.40
2022-12-16T18:58:50.877Z,83.50
2022-12-16T19:01:42.375Z,82.80
2022-12-16T19:04:32.597Z,82.70
2022-12-16T19:07:20.965Z,83.10
2022-12-16T19:10:09.578Z,82.30
2022-12-16T19:12:58.744Z,82.90
2022-12-16T19:15:51.511Z,82.80
2022-12-16T19:18:42.448Z,82.60
2022-12-16T19:21:31.659Z,82.20
2022-12-16T19:24:20.333Z,81.20
2022-12-16T19:30:19.454Z,79.80
2022-12-16T19:33:09.503Z,80.10
2022-12-16T19:35:57.762Z,78.40
2022-12-16T19:38:46.390Z,78.40
2022-12-16T19:41:38.736Z,77.70
2022-12-16T19:44:27.574Z,77.50
2022-12-16T19:47:19.464Z,77.50
2022-12-16T19:50:08.243Z,77.60
2022-12-16T19:52:59.442Z,77.00
2022-12-16T19:55:49.683Z,76.60
2022-12-16T19:58:43.962Z,75.50
2022-12-16T20:01:34.616Z,76.40
2022-12-16T20:04:24.936Z,76.20
2022-12-16T20:07:14.519Z,75.70
2022-12-16T20:10:05.558Z,75.60
2022-12-16T20:12:56.089Z,75.80
2022-12-16T20:15:44.868Z,74.80
2022-12-16T20:18:33.030Z,75.30
2022-12-16T20:21:25.117Z,75.30
2022-12-16T20:24:13.383Z,75.50
2022-12-16T20:27:02.196Z,74.70
2022-12-16T20:29:51.876Z,72.60
2022-12-16T20:32:40.871Z,74.10
2022-12-16T20:35:29.807Z,74.50
2022-12-16T20:38:20.897Z,73.30
2022-12-16T20:41:23.890Z,73.60
2022-12-16T20:44:13.104Z,73.30
2022-12-16T20:47:02.210Z,73.20
2022-12-16T20:49:50.687Z,72.90
2022-12-16T20:52:40.903Z,73.00
2022-12-16T20:55:30.652Z,72.50
2022-12-16T20:58:18.567Z,72.30
2022-12-16T21:01:10.834Z,72.00
2022-12-16T21:03:59.417Z,71.90
2022-12-16T21:06:49.001Z,70.80
2022-12-16T21:09:38.120Z,71.00
2022-12-16T21:12:26.372Z,70.00
2022-12-16T21:15:14.996Z,70.60
2022-12-16T21:18:03.286Z,71.10
2022-12-16T21:20:52.237Z,71.10
2022-12-16T21:23:44.180Z,71.40
2022-12-16T21:26:32.785Z,70.80
2022-12-16T21:29:21.314Z,71.50
2022-12-16T21:32:10.932Z,69.70
2022-12-16T21:34:59.091Z,71.00
2022-12-16T21:37:47.112Z,68.80
2022-12-16T21:40:35.248Z,69.90
2022-12-16T21:43:23.344Z,68.40
2022-12-16T21:46:15.367Z,66.80
2022-12-16T21:49:03.622Z,66.50
2022-12-16T21:51:51.912Z,65.30
2022-12-16T21:54:41.151Z,65.20
2022-12-16T21:57:36.466Z,64.70
2022-12-16T22:00:26.572Z,63.20
2022-12-16T22:03:16.299Z,62.70
2022-12-16T22:06:04.910Z,62.40
2022-12-16T22:08:53.529Z,62.60
2022-12-16T22:11:44.249Z,62.30
2022-12-16T22:14:32.494Z,61.60
2022-12-16T22:17:20.584Z,59.90
2022-12-16T22:20:08.789Z,59.70
2022-12-16T22:23:00.755Z,60.70
2022-12-16T22:25:48.823Z,59.50
2022-12-16T22:28:37.015Z,60.00
2022-12-16T22:31:25.191Z,60.00
2022-12-16T22:34:34.366Z,58.00
2022-12-16T22:36:19.997Z,80.80
2022-12-16T22:37:22.811Z,57.40
2022-12-16T22:40:10.939Z,58.80
2022-12-16T22:42:58.833Z,59.00
2022-12-16T22:45:47.043Z,58.50
2022-12-16T22:48:35.258Z,58.50
2022-12-16T22:51:23.671Z,58.30
2022-12-16T22:54:13.008Z,59.00
2022-12-16T22:57:01.863Z,58.00
2022-12-16T22:59:51.603Z,58.20
2022-12-16T23:02:44.093Z,57.70
2022-12-16T23:05:32.818Z,59.00
2022-12-16T23:08:29.407Z,58.10
2022-12-16T23:11:20.916Z,56.10
2022-12-16T23:14:09.469Z,55.90
2022-12-16T23:16:58.255Z,57.30
2022-12-16T23:19:52.821Z,57.90
2022-12-16T23:22:45.013Z,57.40
2022-12-16T23:25:33.668Z,57.00
2022-12-16T23:28:22.397Z,55.00
2022-12-16T23:31:18.595Z,56.60
2022-12-16T23:34:07.116Z,56.20
2022-12-16T23:36:55.853Z,55.50
2022-12-16T23:39:45.206Z,56.60
2022-12-16T23:42:50.437Z,56.00
2022-12-16T23:45:39.365Z,58.50
2022-12-16T23:48:30.731Z,56.50
2022-12-16T23:51:19.651Z,56.50
2022-12-16T23:54:09.042Z,55.70
2022-12-16T23:57:00.436Z,56.10
2022-12-16T23:59:48.390Z,55.50
